Time;durP1;ratioP1;P1;durP2;ratioP2;P2;SDS_P1;SDS_P2;PMS_P1;PMS_P2;Temp;Humidity;BMP_temperature;BMP_pressure;BME280_temperature;BME280_humidity;BME280_pressure;Samples;Min_cycle;Max_cycle;Signal;HPM_P1;HPM_P2
2021/09/01 00:01:43;;;;;;;;;18.00;15.67;;;;;;;;5031417;28;48320;-83
2021/09/01 00:04:08;;;;;;;;;16.33;15.00;;;;;;;;5032105;28;45432;-82
2021/09/01 00:06:33;;;;;;;;;17.33;14.67;;;;;;;;5027672;28;45442;-83
2021/09/01 00:08:58;;;;;;;;;18.00;16.33;;;;;;;;5032114;28;45533;-82
2021/09/01 00:11:24;;;;;;;;;19.00;15.33;;;;;;;;5032105;28;45998;-83
2021/09/01 00:13:49;;;;;;;;;17.67;14.00;;;;;;;;5032241;28;48825;-82
2021/09/01 00:16:27;;;;;;;;;19.00;15.00;;;;;;;;5034534;28;45474;-82
2021/09/01 00:18:59;;;;;;;;;24.75;16.25;;;;;;;;5033612;28;45382;-82
2021/09/01 00:21:24;;;;;;;;;15.50;14.25;;;;;;;;5031567;28;48726;-83
2021/09/01 00:23:50;;;;;;;;;22.75;17.00;;;;;;;;5031251;28;45542;-82
2021/09/01 00:26:16;;;;;;;;;19.75;16.25;;;;;;;;5032070;28;45504;-82
2021/09/01 00:28:41;;;;;;;;;22.75;17.75;;;;;;;;5032021;28;45345;-83
2021/09/01 00:31:07;;;;;;;;;22.33;19.33;;;;;;;;5034250;28;47693;-83
2021/09/01 00:33:32;;;;;;;;;21.33;15.67;;;;;;;;5031567;28;45515;-83
2021/09/01 00:35:57;;;;;;;;;18.00;16.33;;;;;;;;5031342;28;45566;-82
2021/09/01 00:38:22;;;;;;;;;17.00;15.67;;;;;;;;5031573;28;45676;-83
2021/09/01 00:40:47;;;;;;;;;19.00;17.33;;;;;;;;5032048;28;46588;-82
2021/09/01 00:43:13;;;;;;;;;21.00;18.67;;;;;;;;5034632;28;45479;-82
2021/09/01 00:45:43;;;;;;;;;21.33;18.67;;;;;;;;5031583;28;45494;-82
2021/09/01 00:48:08;;;;;;;;;22.50;17.50;;;;;;;;5030553;28;45616;-83
2021/09/01 00:50:33;;;;;;;;;16.67;14.33;;;;;;;;5030865;28;47373;-82
2021/09/01 00:52:58;;;;;;;;;22.67;17.33;;;;;;;;5029921;28;45900;-82
2021/09/01 00:55:24;;;;;;;;;16.00;14.67;;;;;;;;5033774;28;45374;-82
2021/09/01 00:57:49;;;;;;;;;26.00;18.50;;;;;;;;5032704;28;45295;-82
2021/09/01 01:00:28;;;;;;;;;17.50;16.00;;;;;;;;5031213;28;46215;-82
2021/09/01 01:02:54;;;;;;;;;20.50;16.25;;;;;;;;5029965;28;45960;-83
2021/09/01 01:05:19;;;;;;;;;20.67;17.00;;;;;;;;5030095;28;45516;-82
2021/09/01 01:07:44;;;;;;;;;18.33;15.00;;;;;;;;5031272;28;45425;-82
2021/09/01 01:10:09;;;;;;;;;25.33;16.33;;;;;;;;5035245;28;46490;-83
2021/09/01 01:12:35;;;;;;;;;23.75;17.50;;;;;;;;5030203;28;45492;-83
2021/09/01 01:15:00;;;;;;;;;18.33;15.33;;;;;;;;5030436;28;45400;-83
2021/09/01 01:17:25;;;;;;;;;19.67;15.67;;;;;;;;5032292;28;45300;-82
2021/09/01 01:19:51;;;;;;;;;22.67;18.33;;;;;;;;5030809;28;45601;-83
2021/09/01 01:22:18;;;;;;;;;20.25;16.00;;;;;;;;5032793;28;46223;-82
2021/09/01 01:24:59;;;;;;;;;21.25;17.00;;;;;;;;5032126;28;45458;-82
2021/09/01 01:27:35;;;;;;;;;17.25;12.75;;;;;;;;5027210;28;45681;-82
2021/09/01 01:30:03;;;;;;;;;17.75;13.75;;;;;;;;5031183;28;45502;-83
2021/09/01 01:32:28;;;;;;;;;17.00;14.75;;;;;;;;5029377;28;45740;-82
2021/09/01 01:34:54;;;;;;;;;15.50;15.50;;;;;;;;5030729;28;45616;-83
2021/09/01 01:37:19;;;;;;;;;20.33;16.00;;;;;;;;5033638;28;45588;-82
2021/09/01 01:39:44;;;;;;;;;19.00;15.33;;;;;;;;5030924;28;48183;-82
2021/09/01 01:42:09;;;;;;;;;20.67;15.33;;;;;;;;5030719;28;45737;-82
2021/09/01 01:44:34;;;;;;;;;20.00;17.33;;;;;;;;5027334;28;45510;-83
2021/09/01 01:47:01;;;;;;;;;22.33;20.00;;;;;;;;5031199;28;45455;-82
2021/09/01 01:49:26;;;;;;;;;25.50;19.75;;;;;;;;5031227;28;47636;-83
2021/09/01 01:51:51;;;;;;;;;19.33;16.67;;;;;;;;5031921;28;45497;-83
2021/09/01 01:54:16;;;;;;;;;22.33;20.33;;;;;;;;5030393;28;45431;-83
2021/09/01 01:56:42;;;;;;;;;18.00;16.00;;;;;;;;5032130;28;45523;-83
2021/09/01 01:59:07;;;;;;;;;20.67;16.67;;;;;;;;5028968;28;47103;-83
2021/09/01 02:01:32;;;;;;;;;26.67;19.33;;;;;;;;5031922;28;45376;-82
2021/09/01 02:03:57;;;;;;;;;21.33;18.33;;;;;;;;5031087;28;45365;-83
2021/09/01 02:06:22;;;;;;;;;22.00;18.67;;;;;;;;5030315;28;45380;-82
2021/09/01 02:08:48;;;;;;;;;23.67;16.33;;;;;;;;5030518;28;45454;-82
2021/09/01 02:11:13;;;;;;;;;21.00;19.33;;;;;;;;5031998;28;45481;-83
2021/09/01 02:13:38;;;;;;;;;21.67;18.00;;;;;;;;5030032;28;45404;-82
2021/09/01 02:16:03;;;;;;;;;24.33;19.67;;;;;;;;5033201;28;45331;-82
2021/09/01 02:18:28;;;;;;;;;22.00;19.75;;;;;;;;5029146;28;46144;-82
2021/09/01 02:20:54;;;;;;;;;23.33;22.00;;;;;;;;5029663;28;45931;-82
2021/09/01 02:23:19;;;;;;;;;28.33;21.00;;;;;;;;5029560;28;46284;-82
2021/09/01 02:25:44;;;;;;;;;20.67;20.67;;;;;;;;5029487;28;45672;-82
2021/09/01 02:28:09;;;;;;;;;23.00;20.00;;;;;;;;5033927;28;46093;-82
2021/09/01 02:30:35;;;;;;;;;29.00;24.00;;;;;;;;5029708;28;45560;-82
2021/09/01 02:33:00;;;;;;;;;24.67;21.33;;;;;;;;5031698;28;45513;-82
2021/09/01 02:35:25;;;;;;;;;33.33;25.00;;;;;;;;5029793;28;45436;-82
2021/09/01 02:37:52;;;;;;;;;28.33;22.67;;;;;;;;5018639;28;46701;-83
2021/09/01 02:40:18;;;;;;;;;24.50;23.25;;;;;;;;5029088;28;45975;-82
2021/09/01 02:42:43;;;;;;;;;21.50;20.50;;;;;;;;5031051;28;45947;-81
2021/09/01 02:45:08;;;;;;;;;30.00;24.67;;;;;;;;5024385;28;45582;-82
2021/09/01 02:47:34;;;;;;;;;25.25;24.75;;;;;;;;5021821;28;46147;-82
2021/09/01 02:49:59;;;;;;;;;27.50;22.50;;;;;;;;5030880;28;45397;-81
2021/09/01 02:52:24;;;;;;;;;19.00;19.00;;;;;;;;5032888;28;45480;-83
2021/09/01 02:54:49;;;;;;;;;29.67;22.33;;;;;;;;5028612;28;46390;-82
2021/09/01 02:57:15;;;;;;;;;27.50;23.75;;;;;;;;5029611;28;46045;-83
2021/09/01 02:59:40;;;;;;;;;24.33;22.00;;;;;;;;5028382;28;45621;-83
2021/09/01 03:02:05;;;;;;;;;28.33;24.67;;;;;;;;5029190;28;45467;-83
2021/09/01 03:04:30;;;;;;;;;28.33;22.33;;;;;;;;5031988;28;45392;-82
2021/09/01 03:06:56;;;;;;;;;27.33;22.67;;;;;;;;5031527;28;45366;-83
2021/09/01 03:09:21;;;;;;;;;30.00;24.67;;;;;;;;5029099;28;45947;-81
2021/09/01 03:11:46;;;;;;;;;24.33;22.33;;;;;;;;5029373;28;45324;-83
2021/09/01 03:14:11;;;;;;;;;30.67;22.67;;;;;;;;5032763;28;45225;-82
2021/09/01 03:16:36;;;;;;;;;32.33;26.67;;;;;;;;5033918;28;45626;-83
2021/09/01 03:19:01;;;;;;;;;23.00;20.00;;;;;;;;5035820;28;45326;-82
2021/09/01 03:21:27;;;;;;;;;25.00;24.00;;;;;;;;5032384;28;45620;-83
2021/09/01 03:23:52;;;;;;;;;31.33;24.33;;;;;;;;5032642;28;45244;-82
2021/09/01 03:26:17;;;;;;;;;26.67;24.33;;;;;;;;5033152;28;45479;-82
2021/09/01 03:28:42;;;;;;;;;27.25;23.75;;;;;;;;5033387;28;45533;-82
2021/09/01 03:31:08;;;;;;;;;27.33;20.67;;;;;;;;5036257;28;45351;-82
2021/09/01 03:33:33;;;;;;;;;24.33;22.00;;;;;;;;5032813;28;45660;-80
2021/09/01 03:35:58;;;;;;;;;32.33;25.33;;;;;;;;5031093;28;47301;-80
2021/09/01 03:38:23;;;;;;;;;33.00;25.33;;;;;;;;5034315;28;45401;-83
2021/09/01 03:40:49;;;;;;;;;29.67;26.00;;;;;;;;5032977;28;45592;-80
2021/09/01 03:43:14;;;;;;;;;40.33;28.33;;;;;;;;5034885;28;45330;-82
2021/09/01 03:45:39;;;;;;;;;31.00;24.33;;;;;;;;5031560;28;45298;-82
2021/09/01 03:48:04;;;;;;;;;23.33;22.00;;;;;;;;5032853;28;45426;-83
2021/09/01 03:50:30;;;;;;;;;27.00;24.50;;;;;;;;5031572;28;45613;-83
2021/09/01 03:52:55;;;;;;;;;29.00;24.33;;;;;;;;5032669;28;45741;-83
2021/09/01 03:55:20;;;;;;;;;24.33;24.00;;;;;;;;5034554;28;46112;-82
2021/09/01 03:57:47;;;;;;;;;24.00;21.00;;;;;;;;5034003;28;45477;-82
2021/09/01 04:00:13;;;;;;;;;26.00;24.00;;;;;;;;5032775;28;45476;-82
2021/09/01 04:02:38;;;;;;;;;27.25;24.50;;;;;;;;5025272;28;45826;-82
2021/09/01 04:05:04;;;;;;;;;26.50;22.25;;;;;;;;5031624;28;47541;-83
2021/09/01 04:07:29;;;;;;;;;27.75;22.25;;;;;;;;5032676;28;45984;-82
2021/09/01 04:09:54;;;;;;;;;24.33;23.00;;;;;;;;5028755;28;45577;-83
2021/09/01 04:12:20;;;;;;;;;28.00;24.00;;;;;;;;5032192;28;45663;-82
2021/09/01 04:14:45;;;;;;;;;28.67;25.67;;;;;;;;5031126;28;48285;-83
2021/09/01 04:17:10;;;;;;;;;26.33;22.33;;;;;;;;5033570;28;45360;-82
2021/09/01 04:19:36;;;;;;;;;29.33;21.00;;;;;;;;5033231;28;45422;-83
2021/09/01 04:22:01;;;;;;;;;28.25;22.75;;;;;;;;5033274;28;45491;-83
2021/09/01 04:24:27;;;;;;;;;25.75;23.75;;;;;;;;5031966;28;45883;-82
2021/09/01 04:26:52;;;;;;;;;24.33;20.00;;;;;;;;5031817;28;45407;-83
2021/09/01 04:29:17;;;;;;;;;29.00;21.67;;;;;;;;5032216;28;45331;-82
2021/09/01 04:31:43;;;;;;;;;25.00;21.00;;;;;;;;5031782;28;45406;-83
2021/09/01 04:34:08;;;;;;;;;24.00;21.75;;;;;;;;5035400;28;46118;-83
2021/09/01 04:36:34;;;;;;;;;35.50;22.75;;;;;;;;5031594;28;45424;-83
2021/09/01 04:38:59;;;;;;;;;25.67;21.33;;;;;;;;5031090;28;45425;-82
2021/09/01 04:41:24;;;;;;;;;30.00;24.67;;;;;;;;5030542;28;45591;-82
2021/09/01 04:43:49;;;;;;;;;30.00;23.00;;;;;;;;5031698;28;45429;-82
2021/09/01 04:46:14;;;;;;;;;26.67;21.67;;;;;;;;5033227;28;45584;-82
2021/09/01 04:48:40;;;;;;;;;28.00;22.67;;;;;;;;5034364;28;45610;-82
2021/09/01 04:51:05;;;;;;;;;25.67;21.67;;;;;;;;5030265;28;45513;-82
2021/09/01 04:53:30;;;;;;;;;30.33;22.33;;;;;;;;5030104;28;46422;-83
2021/09/01 04:55:55;;;;;;;;;27.00;23.33;;;;;;;;5031130;28;45315;-82
2021/09/01 04:58:20;;;;;;;;;25.00;24.00;;;;;;;;5032718;28;45475;-82
2021/09/01 05:00:46;;;;;;;;;25.33;20.33;;;;;;;;5027405;28;45337;-82
2021/09/01 05:03:11;;;;;;;;;28.00;22.67;;;;;;;;5031235;28;45810;-82
2021/09/01 05:05:36;;;;;;;;;30.67;24.67;;;;;;;;5030757;28;45557;-83
2021/09/01 05:08:01;;;;;;;;;22.33;21.33;;;;;;;;5030867;28;45407;-83
2021/09/01 05:10:27;;;;;;;;;27.67;21.33;;;;;;;;5033286;28;45372;-82
2021/09/01 05:12:52;;;;;;;;;28.00;22.33;;;;;;;;5032354;28;45536;-82
2021/09/01 05:15:19;;;;;;;;;28.67;26.67;;;;;;;;5032794;28;45375;-82
2021/09/01 05:17:44;;;;;;;;;29.00;24.75;;;;;;;;5031010;28;45493;-83
2021/09/01 05:20:10;;;;;;;;;32.33;24.33;;;;;;;;5032201;28;45467;-83
2021/09/01 05:22:37;;;;;;;;;31.25;23.75;;;;;;;;5031946;28;46512;-82
2021/09/01 05:25:06;;;;;;;;;23.50;19.50;;;;;;;;5031905;28;45950;-82
2021/09/01 05:27:33;;;;;;;;;23.25;16.25;;;;;;;;5032437;28;45454;-82
2021/09/01 05:29:59;;;;;;;;;29.25;22.25;;;;;;;;5030614;28;45524;-82
2021/09/01 05:32:26;;;;;;;;;36.25;24.50;;;;;;;;5029559;28;48064;-82
2021/09/01 05:34:54;;;;;;;;;31.50;25.50;;;;;;;;5029340;28;46172;-82
2021/09/01 05:37:21;;;;;;;;;24.75;19.50;;;;;;;;5033741;28;45434;-83
2021/09/01 05:39:48;;;;;;;;;28.00;24.00;;;;;;;;5029631;28;45599;-83
2021/09/01 05:42:16;;;;;;;;;29.50;24.50;;;;;;;;5030855;28;46008;-82
2021/09/01 05:44:42;;;;;;;;;29.25;25.50;;;;;;;;5028952;28;45850;-83
2021/09/01 05:47:11;;;;;;;;;25.75;22.00;;;;;;;;5031147;28;45441;-81
2021/09/01 05:49:36;;;;;;;;;27.25;22.00;;;;;;;;5031709;28;45597;-82
2021/09/01 05:52:03;;;;;;;;;30.00;22.00;;;;;;;;5033157;28;46234;-82
2021/09/01 05:54:29;;;;;;;;;27.00;21.00;;;;;;;;5028967;28;45958;-82
2021/09/01 05:56:55;;;;;;;;;27.25;22.75;;;;;;;;5031306;28;45489;-83
2021/09/01 05:59:23;;;;;;;;;29.25;22.50;;;;;;;;5019370;28;45441;-83
2021/09/01 06:01:55;;;;;;;;;25.00;20.25;;;;;;;;5030253;28;46232;-82
2021/09/01 06:04:23;;;;;;;;;25.75;19.75;;;;;;;;5031688;28;45791;-81
2021/09/01 06:06:49;;;;;;;;;26.75;21.75;;;;;;;;5031782;28;45428;-83
2021/09/01 06:09:15;;;;;;;;;29.00;23.25;;;;;;;;5028924;28;45612;-82
2021/09/01 06:11:43;;;;;;;;;32.25;26.50;;;;;;;;5029745;28;48185;-82
2021/09/01 06:14:08;;;;;;;;;32.75;23.50;;;;;;;;5030430;28;45402;-83
2021/09/01 06:16:33;;;;;;;;;29.67;25.00;;;;;;;;5030864;28;45954;-82
2021/09/01 06:18:58;;;;;;;;;24.67;24.67;;;;;;;;5032015;28;45481;-82
2021/09/01 06:21:23;;;;;;;;;29.67;24.00;;;;;;;;5028970;28;47563;-83
2021/09/01 06:23:49;;;;;;;;;23.67;22.67;;;;;;;;5030141;28;45468;-83
2021/09/01 06:26:14;;;;;;;;;29.25;22.50;;;;;;;;5029530;28;45510;-82
2021/09/01 06:28:39;;;;;;;;;29.33;22.00;;;;;;;;5030471;28;45724;-82
2021/09/01 06:31:06;;;;;;;;;27.33;23.33;;;;;;;;5031797;28;48083;-83
2021/09/01 06:33:31;;;;;;;;;28.50;21.75;;;;;;;;5029799;28;45610;-82
2021/09/01 06:35:56;;;;;;;;;30.00;22.33;;;;;;;;5030100;28;45565;-82
2021/09/01 06:38:22;;;;;;;;;29.67;20.67;;;;;;;;5028768;28;45569;-82
2021/09/01 06:40:47;;;;;;;;;23.67;21.00;;;;;;;;5028671;28;48334;-82
2021/09/01 06:43:12;;;;;;;;;18.67;16.67;;;;;;;;5028738;28;45357;-83
2021/09/01 06:45:40;;;;;;;;;32.00;24.50;;;;;;;;5031752;28;45449;-83
2021/09/01 06:48:05;;;;;;;;;28.25;21.25;;;;;;;;5034345;28;45530;-83
2021/09/01 06:50:30;;;;;;;;;26.00;24.33;;;;;;;;5033234;28;46208;-83
2021/09/01 06:52:55;;;;;;;;;30.00;22.67;;;;;;;;5032226;28;45833;-82
2021/09/01 06:55:21;;;;;;;;;23.67;20.67;;;;;;;;5034570;28;45468;-82
2021/09/01 06:57:46;;;;;;;;;24.25;18.25;;;;;;;;5028917;28;45394;-82
2021/09/01 07:00:13;;;;;;;;;40.00;23.33;;;;;;;;5032099;28;47347;-82
2021/09/01 07:02:38;;;;;;;;;34.00;23.50;;;;;;;;5032309;28;45878;-82
2021/09/01 07:05:04;;;;;;;;;24.00;21.75;;;;;;;;5032625;28;45438;-83
2021/09/01 07:07:29;;;;;;;;;28.50;22.50;;;;;;;;5034525;28;45346;-82
2021/09/01 07:09:55;;;;;;;;;23.67;20.00;;;;;;;;5034961;28;45411;-82
2021/09/01 07:12:21;;;;;;;;;28.00;20.75;;;;;;;;5032081;28;45487;-83
2021/09/01 07:14:46;;;;;;;;;28.25;24.00;;;;;;;;5032110;28;45398;-83
2021/09/01 07:17:15;;;;;;;;;29.00;26.50;;;;;;;;5031844;28;45638;-82
2021/09/01 07:19:40;;;;;;;;;25.75;22.00;;;;;;;;5032391;28;47213;-82
2021/09/01 07:22:05;;;;;;;;;22.67;19.67;;;;;;;;5035732;28;45366;-82
2021/09/01 07:24:31;;;;;;;;;26.50;22.25;;;;;;;;5031437;28;45512;-82
2021/09/01 07:26:56;;;;;;;;;27.75;23.25;;;;;;;;5032947;28;45410;-80
2021/09/01 07:29:21;;;;;;;;;26.33;22.67;;;;;;;;5032091;28;48489;-82
2021/09/01 07:31:46;;;;;;;;;26.00;20.67;;;;;;;;5033748;28;45554;-81
2021/09/01 07:34:12;;;;;;;;;31.00;25.67;;;;;;;;5036832;28;46958;-82
2021/09/01 07:36:37;;;;;;;;;28.33;24.67;;;;;;;;5032885;28;45473;-82
2021/09/01 07:39:02;;;;;;;;;28.75;23.50;;;;;;;;5032443;28;45729;-82
2021/09/01 07:41:28;;;;;;;;;24.00;21.33;;;;;;;;5031937;28;45660;-82
2021/09/01 07:43:53;;;;;;;;;27.33;22.00;;;;;;;;5030976;28;45791;-80
2021/09/01 07:46:18;;;;;;;;;28.00;24.67;;;;;;;;5018869;28;45659;-80
2021/09/01 07:48:43;;;;;;;;;26.33;21.67;;;;;;;;5030645;28;46571;-82
2021/09/01 07:51:09;;;;;;;;;24.00;21.33;;;;;;;;5031429;28;45383;-82
2021/09/01 07:53:34;;;;;;;;;26.00;23.75;;;;;;;;5032912;28;45412;-82
2021/09/01 07:55:59;;;;;;;;;29.00;22.33;;;;;;;;5030758;28;45388;-82
2021/09/01 07:58:24;;;;;;;;;33.33;24.67;;;;;;;;5033695;28;45917;-82
2021/09/01 08:00:49;;;;;;;;;26.33;22.67;;;;;;;;5032743;28;45457;-82
2021/09/01 08:03:15;;;;;;;;;24.33;18.33;;;;;;;;5032966;28;45410;-82
2021/09/01 08:05:40;;;;;;;;;22.00;20.00;;;;;;;;5031522;28;45584;-83
2021/09/01 08:08:05;;;;;;;;;36.33;25.00;;;;;;;;5031074;28;45501;-81
2021/09/01 08:10:31;;;;;;;;;22.50;20.50;;;;;;;;5033747;28;45874;-82
2021/09/01 08:12:56;;;;;;;;;27.75;19.50;;;;;;;;5031598;28;45692;-82
2021/09/01 08:15:21;;;;;;;;;25.67;21.33;;;;;;;;5030785;28;45496;-82
2021/09/01 08:17:47;;;;;;;;;31.75;23.75;;;;;;;;5031091;28;45711;-81
2021/09/01 08:20:13;;;;;;;;;24.00;18.50;;;;;;;;5031499;28;45567;-82
2021/09/01 08:22:38;;;;;;;;;24.75;21.50;;;;;;;;5032310;28;45409;-82
2021/09/01 08:25:04;;;;;;;;;24.00;21.50;;;;;;;;5032647;28;45397;-82
2021/09/01 08:27:29;;;;;;;;;28.25;19.50;;;;;;;;5030963;28;46073;-82
2021/09/01 08:29:54;;;;;;;;;23.67;20.33;;;;;;;;5030276;28;45521;-81
2021/09/01 08:32:20;;;;;;;;;27.75;23.50;;;;;;;;5030990;28;46332;-81
2021/09/01 08:34:46;;;;;;;;;18.50;15.00;;;;;;;;5030007;28;45487;-81
2021/09/01 08:37:11;;;;;;;;;29.75;22.50;;;;;;;;5033392;28;48261;-82
2021/09/01 08:39:37;;;;;;;;;27.33;22.33;;;;;;;;5031127;28;45511;-82
2021/09/01 08:42:02;;;;;;;;;25.67;22.67;;;;;;;;5031860;28;45345;-82
2021/09/01 08:44:28;;;;;;;;;22.75;20.75;;;;;;;;5029849;28;45915;-82
2021/09/01 08:46:56;;;;;;;;;25.75;22.00;;;;;;;;5031166;28;45480;-82
2021/09/01 08:49:21;;;;;;;;;28.75;25.00;;;;;;;;5032610;28;45391;-82
2021/09/01 08:51:47;;;;;;;;;28.00;23.67;;;;;;;;5032438;28;45269;-81
2021/09/01 08:54:13;;;;;;;;;22.50;19.00;;;;;;;;5030072;28;45527;-82
2021/09/01 08:56:38;;;;;;;;;26.00;19.25;;;;;;;;5030784;28;45340;-81
2021/09/01 08:59:04;;;;;;;;;25.67;21.00;;;;;;;;5030116;28;45502;-81
2021/09/01 09:01:41;;;;;;;;;25.00;21.25;;;;;;;;5032079;28;45625;-82
2021/09/01 09:04:13;;;;;;;;;22.75;19.00;;;;;;;;5033892;28;45418;-82
2021/09/01 09:06:43;;;;;;;;;23.75;21.75;;;;;;;;5030383;28;46143;-82
2021/09/01 09:09:09;;;;;;;;;25.00;21.00;;;;;;;;5028249;28;46017;-83
2021/09/01 09:11:34;;;;;;;;;23.00;22.00;;;;;;;;5030012;28;45488;-83
2021/09/01 09:14:14;;;;;;;;;20.00;19.00;;;;;;;;5030724;28;45446;-82
2021/09/01 09:16:39;;;;;;;;;26.25;21.00;;;;;;;;5031088;28;46099;-83
2021/09/01 09:19:04;;;;;;;;;19.00;17.75;;;;;;;;5031624;28;45554;-83
2021/09/01 09:21:34;;;;;;;;;19.67;18.67;;;;;;;;5029050;28;45585;-82
2021/09/01 09:23:59;;;;;;;;;23.00;17.50;;;;;;;;5029443;28;45558;-82
2021/09/01 09:26:29;;;;;;;;;21.00;21.00;;;;;;;;5030234;28;45516;-83
2021/09/01 09:29:06;;;;;;;;;20.00;17.25;;;;;;;;5030613;28;45317;-83
2021/09/01 09:31:31;;;;;;;;;21.25;18.75;;;;;;;;5031582;28;45401;-82
2021/09/01 09:34:03;;;;;;;;;22.25;18.75;;;;;;;;5033886;28;45509;-82
2021/09/01 09:36:28;;;;;;;;;24.25;16.75;;;;;;;;5029860;28;45508;-83
2021/09/01 09:38:54;;;;;;;;;22.00;19.50;;;;;;;;5030062;28;45820;-83
2021/09/01 09:41:21;;;;;;;;;20.25;19.75;;;;;;;;5028727;28;45304;-83
2021/09/01 09:43:47;;;;;;;;;21.75;19.50;;;;;;;;5020983;28;45347;-83
2021/09/01 09:46:12;;;;;;;;;22.25;20.00;;;;;;;;5032142;28;45444;-83
2021/09/01 09:48:38;;;;;;;;;21.25;18.75;;;;;;;;5029105;28;45807;-82
2021/09/01 09:51:05;;;;;;;;;23.00;21.00;;;;;;;;5023276;28;45626;-83
2021/09/01 09:53:42;;;;;;;;;21.00;19.50;;;;;;;;5024008;28;45468;-83
2021/09/01 09:56:29;;;;;;;;;20.00;17.75;;;;;;;;5023831;28;47336;-83
2021/09/01 09:58:55;;;;;;;;;18.25;17.50;;;;;;;;5025962;28;45548;-83
2021/09/01 10:01:22;;;;;;;;;18.25;17.00;;;;;;;;5031368;28;45628;-82
2021/09/01 10:03:48;;;;;;;;;20.00;17.50;;;;;;;;5031270;28;45482;-82
2021/09/01 10:06:16;;;;;;;;;18.00;16.75;;;;;;;;5030119;28;45801;-83
2021/09/01 10:08:41;;;;;;;;;20.75;17.75;;;;;;;;5030187;28;45650;-83
2021/09/01 10:11:07;;;;;;;;;22.75;18.00;;;;;;;;5028079;28;45538;-83
2021/09/01 10:13:32;;;;;;;;;19.25;16.00;;;;;;;;5031680;28;46148;-82
2021/09/01 10:16:00;;;;;;;;;21.25;15.00;;;;;;;;5025076;28;47356;-82
2021/09/01 10:18:26;;;;;;;;;20.50;17.75;;;;;;;;5031326;28;45750;-82
2021/09/01 10:20:51;;;;;;;;;21.25;17.50;;;;;;;;5030212;28;45583;-82
2021/09/01 10:23:17;;;;;;;;;23.75;20.50;;;;;;;;5028989;28;45378;-82
2021/09/01 10:25:45;;;;;;;;;19.00;16.33;;;;;;;;5029963;28;45469;-84
2021/09/01 10:28:20;;;;;;;;;18.50;17.00;;;;;;;;5028931;28;45832;-82
2021/09/01 10:31:08;;;;;;;;;20.25;16.50;;;;;;;;5030462;28;45559;-82
2021/09/01 10:33:34;;;;;;;;;27.00;16.75;;;;;;;;5029958;28;45497;-83
2021/09/01 10:35:59;;;;;;;;;17.50;16.50;;;;;;;;5028910;28;46393;-83
2021/09/01 10:38:33;;;;;;;;;18.33;16.33;;;;;;;;5030525;28;49827;-83
2021/09/01 10:41:07;;;;;;;;;18.00;17.00;;;;;;;;5028842;28;45486;-83
2021/09/01 10:43:33;;;;;;;;;15.25;14.50;;;;;;;;5031688;28;45263;-83
2021/09/01 10:45:58;;;;;;;;;17.75;15.50;;;;;;;;5029611;28;46127;-83
2021/09/01 10:48:24;;;;;;;;;18.00;16.50;;;;;;;;5029771;28;45396;-82
2021/09/01 10:50:51;;;;;;;;;19.75;14.25;;;;;;;;5029145;28;45592;-83
2021/09/01 10:53:24;;;;;;;;;18.25;16.50;;;;;;;;5028527;28;45650;-84
2021/09/01 10:55:49;;;;;;;;;15.50;15.00;;;;;;;;5025857;28;45439;-83
2021/09/01 10:58:18;;;;;;;;;18.00;17.33;;;;;;;;5032081;28;46022;-82
2021/09/01 11:00:43;;;;;;;;;22.25;16.50;;;;;;;;5029460;28;45511;-83
2021/09/01 11:03:09;;;;;;;;;17.75;16.00;;;;;;;;5029652;28;45492;-83
2021/09/01 11:05:34;;;;;;;;;22.00;22.00;;;;;;;;5029149;28;48233;-84
2021/09/01 11:07:59;;;;;;;;;39.75;32.25;;;;;;;;5028229;28;45492;-84
2021/09/01 11:10:28;;;;;;;;;41.67;30.67;;;;;;;;5026936;28;45407;-84
2021/09/01 11:12:58;;;;;;;;;60.75;47.25;;;;;;;;5024697;28;45522;-84
2021/09/01 11:15:24;;;;;;;;;48.50;35.00;;;;;;;;5029495;28;46398;-84
2021/09/01 11:17:49;;;;;;;;;36.25;32.00;;;;;;;;5030972;28;45362;-84
2021/09/01 11:20:14;;;;;;;;;25.33;21.67;;;;;;;;5027513;28;45621;-83
2021/09/01 11:22:39;;;;;;;;;26.00;21.00;;;;;;;;5030380;28;45482;-84
2021/09/01 11:25:12;;;;;;;;;38.00;30.33;;;;;;;;5031379;28;47349;-84
2021/09/01 11:27:46;;;;;;;;;51.75;43.25;;;;;;;;5029480;28;45281;-85
2021/09/01 11:30:12;;;;;;;;;49.00;39.00;;;;;;;;5030913;28;45371;-84
2021/09/01 11:32:39;;;;;;;;;23.00;20.50;;;;;;;;5032508;28;45372;-84
2021/09/01 11:35:08;;;;;;;;;37.75;29.75;;;;;;;;5033643;28;45956;-84
2021/09/01 11:37:33;;;;;;;;;45.25;37.75;;;;;;;;5034107;28;45576;-83
2021/09/01 11:39:59;;;;;;;;;24.00;20.67;;;;;;;;5033527;28;45390;-82
2021/09/01 11:42:24;;;;;;;;;16.33;14.33;;;;;;;;5021204;28;45506;-83
2021/09/01 11:44:55;;;;;;;;;17.00;15.50;;;;;;;;5018284;28;45690;-86
2021/09/01 11:47:21;;;;;;;;;15.75;15.00;;;;;;;;5032486;28;45385;-86
2021/09/01 11:49:48;;;;;;;;;16.75;15.75;;;;;;;;5032793;28;46108;-84
2021/09/01 11:52:14;;;;;;;;;12.00;10.75;;;;;;;;5034651;28;45685;-85
2021/09/01 11:54:40;;;;;;;;;14.25;13.50;;;;;;;;5027788;28;45532;-85
2021/09/01 11:57:05;;;;;;;;;15.50;14.25;;;;;;;;5026675;28;47414;-88
2021/09/01 11:59:30;;;;;;;;;12.75;11.50;;;;;;;;5034264;28;45432;-86
2021/09/01 12:01:58;;;;;;;;;14.25;12.25;;;;;;;;5032300;28;45633;-86
2021/09/01 12:04:23;;;;;;;;;18.00;14.25;;;;;;;;5032598;28;46022;-86
2021/09/01 12:06:56;;;;;;;;;13.50;13.50;;;;;;;;5027851;28;45983;-86
2021/09/01 12:09:22;;;;;;;;;16.50;13.25;;;;;;;;5031994;28;45484;-86
2021/09/01 12:11:49;;;;;;;;;11.00;10.50;;;;;;;;5032008;28;45384;-85
2021/09/01 12:14:14;;;;;;;;;12.00;9.50;;;;;;;;5029317;28;48163;-85
2021/09/01 12:16:39;;;;;;;;;12.75;11.50;;;;;;;;5031616;28;45543;-86
2021/09/01 12:19:13;;;;;;;;;13.25;12.75;;;;;;;;5036116;28;45746;-83
2021/09/01 12:21:44;;;;;;;;;10.25;10.25;;;;;;;;5032127;28;45573;-85
2021/09/01 12:24:16;;;;;;;;;12.00;10.00;;;;;;;;5027707;28;47871;-86
2021/09/01 12:26:49;;;;;;;;;12.00;9.50;;;;;;;;5031574;28;45328;-84
2021/09/01 12:29:24;;;;;;;;;18.00;13.75;;;;;;;;5033275;28;45524;-83
2021/09/01 12:31:50;;;;;;;;;13.75;13.00;;;;;;;;5027622;28;45478;-84
2021/09/01 12:34:15;;;;;;;;;10.25;9.25;;;;;;;;5015804;28;45501;-80
2021/09/01 12:36:40;;;;;;;;;12.33;10.00;;;;;;;;5025569;28;45639;-83
2021/09/01 12:39:06;;;;;;;;;13.33;8.67;;;;;;;;5031316;28;45749;-83
2021/09/01 12:41:41;;;;;;;;;11.75;11.75;;;;;;;;5030626;28;45480;-84
2021/09/01 12:44:07;;;;;;;;;12.00;10.75;;;;;;;;5028822;28;47325;-84
2021/09/01 12:46:32;;;;;;;;;10.67;10.67;;;;;;;;5030429;28;46439;-85
2021/09/01 12:48:57;;;;;;;;;12.00;9.33;;;;;;;;5031762;28;45392;-82
2021/09/01 12:51:22;;;;;;;;;9.00;8.25;;;;;;;;5031977;28;45360;-82
2021/09/01 12:53:50;;;;;;;;;11.00;8.33;;;;;;;;5031114;28;45556;-83
2021/09/01 12:56:15;;;;;;;;;15.50;11.25;;;;;;;;5029619;28;45829;-83
2021/09/01 12:58:40;;;;;;;;;11.33;11.33;;;;;;;;5032785;28;45580;-84
2021/09/01 13:01:06;;;;;;;;;13.00;11.75;;;;;;;;5032998;28;45678;-83
2021/09/01 13:03:31;;;;;;;;;9.75;9.00;;;;;;;;5030128;28;45660;-83
2021/09/01 13:05:57;;;;;;;;;11.50;11.50;;;;;;;;5029708;28;45464;-84
2021/09/01 13:08:22;;;;;;;;;9.25;9.00;;;;;;;;5030629;28;45473;-85
2021/09/01 13:10:47;;;;;;;;;9.67;8.00;;;;;;;;5029492;28;45392;-85
2021/09/01 13:13:12;;;;;;;;;13.00;8.33;;;;;;;;5034523;28;45415;-84
2021/09/01 13:15:38;;;;;;;;;10.75;9.25;;;;;;;;5031686;28;45922;-84
2021/09/01 13:18:03;;;;;;;;;9.25;8.75;;;;;;;;5030526;28;45508;-85
2021/09/01 13:20:29;;;;;;;;;7.25;7.25;;;;;;;;5030397;28;45450;-85
2021/09/01 13:22:55;;;;;;;;;7.50;7.50;;;;;;;;5033332;28;45394;-84
2021/09/01 13:25:20;;;;;;;;;10.50;9.25;;;;;;;;5030957;28;45495;-85
2021/09/01 13:27:46;;;;;;;;;10.75;8.75;;;;;;;;5031922;28;45425;-85
2021/09/01 13:30:11;;;;;;;;;10.75;9.50;;;;;;;;5030976;28;45394;-85
2021/09/01 13:32:37;;;;;;;;;10.75;9.00;;;;;;;;5030264;28;46121;-86
2021/09/01 13:35:02;;;;;;;;;10.75;10.50;;;;;;;;5030059;28;45438;-85
2021/09/01 13:37:28;;;;;;;;;10.50;10.50;;;;;;;;5028002;28;45327;-86
2021/09/01 13:39:53;;;;;;;;;10.00;8.67;;;;;;;;5025828;28;45533;-85
2021/09/01 13:42:18;;;;;;;;;10.67;9.33;;;;;;;;5029101;28;47341;-86
2021/09/01 13:44:43;;;;;;;;;9.33;9.33;;;;;;;;5028134;28;45494;-87
2021/09/01 13:47:09;;;;;;;;;10.67;9.33;;;;;;;;5029519;28;46670;-81
2021/09/01 13:49:34;;;;;;;;;7.25;7.00;;;;;;;;5028049;28;45215;-84
2021/09/01 13:52:01;;;;;;;;;12.00;11.33;;;;;;;;5032327;28;47660;-82
2021/09/01 13:54:26;;;;;;;;;8.75;8.25;;;;;;;;5029739;28;45344;-85
2021/09/01 13:56:52;;;;;;;;;11.00;11.00;;;;;;;;5031887;28;46069;-86
2021/09/01 13:59:18;;;;;;;;;11.75;9.50;;;;;;;;5029930;28;45493;-84
2021/09/01 14:01:43;;;;;;;;;9.50;7.50;;;;;;;;5031905;28;45622;-84
2021/09/01 14:04:09;;;;;;;;;9.50;8.00;;;;;;;;5034553;28;45895;-85
2021/09/01 14:06:34;;;;;;;;;8.25;7.75;;;;;;;;5030223;28;45649;-81
2021/09/01 14:09:00;;;;;;;;;9.75;7.25;;;;;;;;5030043;28;45427;-84
2021/09/01 14:11:26;;;;;;;;;7.00;6.00;;;;;;;;5030228;28;47518;-86
2021/09/01 14:13:51;;;;;;;;;7.75;7.75;;;;;;;;5030327;28;45528;-86